sensor_id;sensor_type;location;lat;lon;timestamp;temperature;humidity
2605;DHT22;1312;50.298;8.520;2024-03-25T00:00:33;4.40;99.90
2605;DHT22;1312;50.298;8.520;2024-03-25T00:03:01;4.40;99.90
2605;DHT22;1312;50.298;8.520;2024-03-25T00:05:27;4.40;99.90
2605;DHT22;1312;50.298;8.520;2024-03-25T00:07:55;4.40;99.90
2605;DHT22;1312;50.298;8.520;2024-03-25T00:10:22;4.40;99.90
2605;DHT22;1312;50.298;8.520;2024-03-25T00:12:49;4.40;99.90
2605;DHT22;1312;50.298;8.520;2024-03-25T00:15:20;4.40;99.90
2605;DHT22;1312;50.298;8.520;2024-03-25T00:17:49;4.40;99.90
2605;DHT22;1312;50.298;8.520;2024-03-25T00:20:15;4.40;99.90
2605;DHT22;1312;50.298;8.520;2024-03-25T00:22:42;4.30;1.00
2605;DHT22;1312;50.298;8.520;2024-03-25T00:25:08;4.20;1.00
2605;DHT22;1312;50.298;8.520;2024-03-25T00:27:37;4.10;28.90
2605;DHT22;1312;50.298;8.520;2024-03-25T00:30:03;4.00;99.90
2605;DHT22;1312;50.298;8.520;2024-03-25T00:32:31;4.00;85.30
2605;DHT22;1312;50.298;8.520;2024-03-25T00:34:57;4.00;11.80
2605;DHT22;1312;50.298;8.520;2024-03-25T00:37:24;4.00;1.00
2605;DHT22;1312;50.298;8.520;2024-03-25T00:39:50;4.00;1.00
2605;DHT22;1312;50.298;8.520;2024-03-25T00:42:17;4.00;1.00
2605;DHT22;1312;50.298;8.520;2024-03-25T00:44:44;4.00;1.00
2605;DHT22;1312;50.298;8.520;2024-03-25T00:47:11;4.00;16.40
2605;DHT22;1312;50.298;8.520;2024-03-25T00:49:38;4.00;1.00
2605;DHT22;1312;50.298;8.520;2024-03-25T00:52:05;4.00;1.00
2605;DHT22;1312;50.298;8.520;2024-03-25T00:54:31;4.00;1.00
2605;DHT22;1312;50.298;8.520;2024-03-25T00:56:58;4.00;1.00
2605;DHT22;1312;50.298;8.520;2024-03-25T00:59:24;4.00;1.00
2605;DHT22;1312;50.298;8.520;2024-03-25T01:01:53;4.00;1.00
2605;DHT22;1312;50.298;8.520;2024-03-25T01:04:19;3.90;1.00
2605;DHT22;1312;50.298;8.520;2024-03-25T01:06:46;3.90;1.00
2605;DHT22;1312;50.298;8.520;2024-03-25T01:09:12;3.80;1.00
2605;DHT22;1312;50.298;8.520;2024-03-25T01:11:39;3.70;1.00
2605;DHT22;1312;50.298;8.520;2024-03-25T01:14:05;3.60;1.00
2605;DHT22;1312;50.298;8.520;2024-03-25T01:16:33;3.60;1.00
2605;DHT22;1312;50.298;8.520;2024-03-25T01:19:01;3.60;1.00
2605;DHT22;1312;50.298;8.520;2024-03-25T01:21:28;3.50;1.00
2605;DHT22;1312;50.298;8.520;2024-03-25T01:23:54;3.40;1.00
2605;DHT22;1312;50.298;8.520;2024-03-25T01:26:21;3.40;1.00
2605;DHT22;1312;50.298;8.520;2024-03-25T01:28:48;3.40;1.00
2605;DHT22;1312;50.298;8.520;2024-03-25T01:31:15;3.30;1.00
2605;DHT22;1312;50.298;8.520;2024-03-25T01:33:40;3.30;1.00
2605;DHT22;1312;50.298;8.520;2024-03-25T01:36:09;3.30;1.00
2605;DHT22;1312;50.298;8.520;2024-03-25T01:38:37;3.40;1.00
2605;DHT22;1312;50.298;8.520;2024-03-25T01:41:07;3.50;1.00
2605;DHT22;1312;50.298;8.520;2024-03-25T01:43:34;3.60;1.00
2605;DHT22;1312;50.298;8.520;2024-03-25T01:46:01;3.50;1.00
2605;DHT22;1312;50.298;8.520;2024-03-25T01:48:27;3.60;1.00
2605;DHT22;1312;50.298;8.520;2024-03-25T01:50:54;3.70;1.00
2605;DHT22;1312;50.298;8.520;2024-03-25T01:53:23;3.60;1.00
2605;DHT22;1312;50.298;8.520;2024-03-25T01:55:52;3.60;1.00
2605;DHT22;1312;50.298;8.520;2024-03-25T01:58:21;3.60;1.00
2605;DHT22;1312;50.298;8.520;2024-03-25T02:00:49;3.70;1.00
2605;DHT22;1312;50.298;8.520;2024-03-25T02:03:15;3.70;1.00
2605;DHT22;1312;50.298;8.520;2024-03-25T02:05:43;3.70;1.00
2605;DHT22;1312;50.298;8.520;2024-03-25T02:08:09;3.70;1.00
2605;DHT22;1312;50.298;8.520;2024-03-25T02:10:38;3.80;1.00
2605;DHT22;1312;50.298;8.520;2024-03-25T02:13:05;3.80;1.00
2605;DHT22;1312;50.298;8.520;2024-03-25T02:15:33;3.80;1.00
2605;DHT22;1312;50.298;8.520;2024-03-25T02:18:00;3.80;1.00
2605;DHT22;1312;50.298;8.520;2024-03-25T02:20:27;3.70;1.00
2605;DHT22;1312;50.298;8.520;2024-03-25T02:22:54;3.80;1.00
2605;DHT22;1312;50.298;8.520;2024-03-25T02:25:21;3.90;1.00
2605;DHT22;1312;50.298;8.520;2024-03-25T02:27:49;3.80;1.00
2605;DHT22;1312;50.298;8.520;2024-03-25T02:30:16;3.90;1.00
2605;DHT22;1312;50.298;8.520;2024-03-25T02:32:42;3.90;1.00
2605;DHT22;1312;50.298;8.520;2024-03-25T02:35:13;3.80;1.00
2605;DHT22;1312;50.298;8.520;2024-03-25T02:37:41;3.90;1.00
2605;DHT22;1312;50.298;8.520;2024-03-25T02:40:09;3.90;1.00
2605;DHT22;1312;50.298;8.520;2024-03-25T02:42:35;3.90;1.00
2605;DHT22;1312;50.298;8.520;2024-03-25T02:45:05;3.90;1.00
2605;DHT22;1312;50.298;8.520;2024-03-25T02:47:31;3.90;1.00
2605;DHT22;1312;50.298;8.520;2024-03-25T02:49:58;3.80;1.00
2605;DHT22;1312;50.298;8.520;2024-03-25T02:52:24;3.80;1.00
2605;DHT22;1312;50.298;8.520;2024-03-25T02:54:51;3.80;1.00
2605;DHT22;1312;50.298;8.520;2024-03-25T02:57:19;3.70;1.00
2605;DHT22;1312;50.298;8.520;2024-03-25T02:59:47;3.70;1.00
2605;DHT22;1312;50.298;8.520;2024-03-25T03:02:14;3.70;1.00
2605;DHT22;1312;50.298;8.520;2024-03-25T03:04:41;3.70;1.00
2605;DHT22;1312;50.298;8.520;2024-03-25T03:07:07;3.60;1.00
2605;DHT22;1312;50.298;8.520;2024-03-25T03:09:34;3.60;1.00
2605;DHT22;1312;50.298;8.520;2024-03-25T03:12:00;3.60;1.00
2605;DHT22;1312;50.298;8.520;2024-03-25T03:14:27;3.50;1.00
2605;DHT22;1312;50.298;8.520;2024-03-25T03:16:53;3.40;1.00
2605;DHT22;1312;50.298;8.520;2024-03-25T03:19:25;3.40;1.00
2605;DHT22;1312;50.298;8.520;2024-03-25T03:21:51;3.40;1.00
2605;DHT22;1312;50.298;8.520;2024-03-25T03:24:18;3.30;1.00
2605;DHT22;1312;50.298;8.520;2024-03-25T03:26:44;3.30;1.00
2605;DHT22;1312;50.298;8.520;2024-03-25T03:29:11;3.30;1.00
2605;DHT22;1312;50.298;8.520;2024-03-25T03:31:37;3.30;1.00
2605;DHT22;1312;50.298;8.520;2024-03-25T03:34:05;3.30;1.00
2605;DHT22;1312;50.298;8.520;2024-03-25T03:36:32;3.20;1.00
2605;DHT22;1312;50.298;8.520;2024-03-25T03:38:59;3.30;1.00
2605;DHT22;1312;50.298;8.520;2024-03-25T03:41:25;3.30;1.00
2605;DHT22;1312;50.298;8.520;2024-03-25T03:43:52;3.30;1.00
2605;DHT22;1312;50.298;8.520;2024-03-25T03:46:18;3.20;1.00
2605;DHT22;1312;50.298;8.520;2024-03-25T03:48:45;3.30;1.00
2605;DHT22;1312;50.298;8.520;2024-03-25T03:51:11;3.30;1.00
2605;DHT22;1312;50.298;8.520;2024-03-25T03:53:40;3.30;1.00
2605;DHT22;1312;50.298;8.520;2024-03-25T03:56:06;3.20;1.00
2605;DHT22;1312;50.298;8.520;2024-03-25T03:58:33;3.20;1.00
2605;DHT22;1312;50.298;8.520;2024-03-25T04:01:01;3.10;1.00
2605;DHT22;1312;50.298;8.520;2024-03-25T04:03:30;3.10;1.00
2605;DHT22;1312;50.298;8.520;2024-03-25T04:05:56;3.00;1.00
2605;DHT22;1312;50.298;8.520;2024-03-25T04:08:23;2.90;1.00
2605;DHT22;1312;50.298;8.520;2024-03-25T04:10:50;2.90;5.10
2605;DHT22;1312;50.298;8.520;2024-03-25T04:13:17;2.90;1.00
2605;DHT22;1312;50.298;8.520;2024-03-25T04:15:43;2.90;1.00
2605;DHT22;1312;50.298;8.520;2024-03-25T04:18:10;2.90;1.00
2605;DHT22;1312;50.298;8.520;2024-03-25T04:20:37;2.90;21.40
2605;DHT22;1312;50.298;8.520;2024-03-25T04:23:04;2.90;57.10
2605;DHT22;1312;50.298;8.520;2024-03-25T04:25:32;2.90;99.90
2605;DHT22;1312;50.298;8.520;2024-03-25T04:28:01;2.80;99.90
2605;DHT22;1312;50.298;8.520;2024-03-25T04:30:27;2.80;99.90
2605;DHT22;1312;50.298;8.520;2024-03-25T04:32:54;2.80;99.90
2605;DHT22;1312;50.298;8.520;2024-03-25T04:35:20;2.80;99.90
2605;DHT22;1312;50.298;8.520;2024-03-25T04:37:47;2.80;99.90
2605;DHT22;1312;50.298;8.520;2024-03-25T04:40:13;2.70;99.90
2605;DHT22;1312;50.298;8.520;2024-03-25T04:42:40;2.60;99.90
2605;DHT22;1312;50.298;8.520;2024-03-25T04:45:08;2.60;99.90
2605;DHT22;1312;50.298;8.520;2024-03-25T04:47:34;2.50;99.90
2605;DHT22;1312;50.298;8.520;2024-03-25T04:50:00;2.50;99.90
2605;DHT22;1312;50.298;8.520;2024-03-25T04:52:26;2.40;99.90
2605;DHT22;1312;50.298;8.520;2024-03-25T04:54:52;2.30;99.90
2605;DHT22;1312;50.298;8.520;2024-03-25T04:57:18;2.30;99.90
2605;DHT22;1312;50.298;8.520;2024-03-25T04:59:44;2.30;99.90
2605;DHT22;1312;50.298;8.520;2024-03-25T05:02:12;2.30;99.90
2605;DHT22;1312;50.298;8.520;2024-03-25T05:04:38;2.20;99.90
2605;DHT22;1312;50.298;8.520;2024-03-25T05:07:04;2.20;99.90
2605;DHT22;1312;50.298;8.520;2024-03-25T05:09:30;2.10;99.90
2605;DHT22;1312;50.298;8.520;2024-03-25T05:11:56;2.20;99.90
2605;DHT22;1312;50.298;8.520;2024-03-25T05:14:22;2.10;99.90
2605;DHT22;1312;50.298;8.520;2024-03-25T05:16:49;2.10;99.90
2605;DHT22;1312;50.298;8.520;2024-03-25T05:19:16;2.20;99.90
2605;DHT22;1312;50.298;8.520;2024-03-25T05:21:42;2.20;99.90
2605;DHT22;1312;50.298;8.520;2024-03-25T05:24:08;2.10;99.90
2605;DHT22;1312;50.298;8.520;2024-03-25T05:26:35;2.10;99.90
2605;DHT22;1312;50.298;8.520;2024-03-25T05:29:01;2.10;99.90
2605;DHT22;1312;50.298;8.520;2024-03-25T05:31:27;2.10;99.90
2605;DHT22;1312;50.298;8.520;2024-03-25T05:33:53;2.10;99.90
2605;DHT22;1312;50.298;8.520;2024-03-25T05:36:20;2.10;99.90
2605;DHT22;1312;50.298;8.520;2024-03-25T05:38:46;2.20;91.40
2605;DHT22;1312;50.298;8.520;2024-03-25T05:41:12;2.10;99.90
2605;DHT22;1312;50.298;8.520;2024-03-25T05:43:38;2.10;99.90
2605;DHT22;1312;50.298;8.520;2024-03-25T05:46:04;2.20;38.90
2605;DHT22;1312;50.298;8.520;2024-03-25T05:48:30;2.10;86.10
2605;DHT22;1312;50.298;8.520;2024-03-25T05:50:58;2.00;99.90
2605;DHT22;1312;50.298;8.520;2024-03-25T05:53:26;2.00;99.90
2605;DHT22;1312;50.298;8.520;2024-03-25T05:55:52;2.00;99.90
2605;DHT22;1312;50.298;8.520;2024-03-25T05:58:19;2.20;99.90
2605;DHT22;1312;50.298;8.520;2024-03-25T06:00:47;2.30;99.90
2605;DHT22;1312;50.298;8.520;2024-03-25T06:03:13;2.40;82.10
2605;DHT22;1312;50.298;8.520;2024-03-25T06:05:39;2.50;69.20
2605;DHT22;1312;50.298;8.520;2024-03-25T06:08:06;2.90;1.00
2605;DHT22;1312;50.298;8.520;2024-03-25T06:10:38;2.90;1.00
2605;DHT22;1312;50.298;8.520;2024-03-25T06:13:04;2.80;1.00
2605;DHT22;1312;50.298;8.520;2024-03-25T06:15:30;2.80;1.00
2605;DHT22;1312;50.298;8.520;2024-03-25T06:17:56;2.90;1.00
2605;DHT22;1312;50.298;8.520;2024-03-25T06:20:22;3.00;1.00
2605;DHT22;1312;50.298;8.520;2024-03-25T06:22:48;3.00;1.00
2605;DHT22;1312;50.298;8.520;2024-03-25T06:25:15;3.10;1.00
2605;DHT22;1312;50.298;8.520;2024-03-25T06:27:42;3.20;1.00
2605;DHT22;1312;50.298;8.520;2024-03-25T06:30:09;4.20;99.90
2605;DHT22;1312;50.298;8.520;2024-03-25T06:32:54;4.80;99.90
2605;DHT22;1312;50.298;8.520;2024-03-25T06:35:37;5.30;99.90
2605;DHT22;1312;50.298;8.520;2024-03-25T06:38:03;6.10;99.90
2605;DHT22;1312;50.298;8.520;2024-03-25T06:40:29;6.50;99.90
2605;DHT22;1312;50.298;8.520;2024-03-25T06:42:57;6.30;99.90
2605;DHT22;1312;50.298;8.520;2024-03-25T06:45:23;5.90;99.90
2605;DHT22;1312;50.298;8.520;2024-03-25T06:47:49;5.20;99.90
2605;DHT22;1312;50.298;8.520;2024-03-25T06:50:15;4.60;99.90
2605;DHT22;1312;50.298;8.520;2024-03-25T06:52:41;4.80;99.90
2605;DHT22;1312;50.298;8.520;2024-03-25T06:55:08;4.60;99.90
2605;DHT22;1312;50.298;8.520;2024-03-25T06:57:34;4.70;99.90
2605;DHT22;1312;50.298;8.520;2024-03-25T07:00:01;4.50;99.90
2605;DHT22;1312;50.298;8.520;2024-03-25T07:02:28;4.30;99.90
2605;DHT22;1312;50.298;8.520;2024-03-25T07:04:54;4.40;99.90
2605;DHT22;1312;50.298;8.520;2024-03-25T07:07:20;4.30;99.90
2605;DHT22;1312;50.298;8.520;2024-03-25T07:09:46;4.50;99.90
2605;DHT22;1312;50.298;8.520;2024-03-25T07:12:12;4.60;99.90
2605;DHT22;1312;50.298;8.520;2024-03-25T07:14:38;4.60;99.90
2605;DHT22;1312;50.298;8.520;2024-03-25T07:17:06;4.50;99.90
2605;DHT22;1312;50.298;8.520;2024-03-25T07:19:32;4.50;99.90
2605;DHT22;1312;50.298;8.520;2024-03-25T07:21:58;4.70;99.90
2605;DHT22;1312;50.298;8.520;2024-03-25T07:24:24;5.00;99.90
2605;DHT22;1312;50.298;8.520;2024-03-25T07:26:50;5.20;99.90
2605;DHT22;1312;50.298;8.520;2024-03-25T07:29:16;5.10;99.90
2605;DHT22;1312;50.298;8.520;2024-03-25T07:31:42;5.50;99.90
2605;DHT22;1312;50.298;8.520;2024-03-25T07:34:10;5.60;99.90
2605;DHT22;1312;50.298;8.520;2024-03-25T07:36:36;5.80;99.90
2605;DHT22;1312;50.298;8.520;2024-03-25T07:39:02;7.10;99.90
2605;DHT22;1312;50.298;8.520;2024-03-25T07:41:29;8.10;98.70
2605;DHT22;1312;50.298;8.520;2024-03-25T07:43:55;7.90;77.10
2605;DHT22;1312;50.298;8.520;2024-03-25T07:46:21;7.80;82.00
2605;DHT22;1312;50.298;8.520;2024-03-25T07:48:47;8.80;74.30
2605;DHT22;1312;50.298;8.520;2024-03-25T07:51:14;9.00;64.90
2605;DHT22;1312;50.298;8.520;2024-03-25T07:53:40;8.80;58.40
2605;DHT22;1312;50.298;8.520;2024-03-25T07:56:07;10.20;65.40
2605;DHT22;1312;50.298;8.520;2024-03-25T07:58:33;8.80;51.30
2605;DHT22;1312;50.298;8.520;2024-03-25T08:00:59;8.50;47.40
2605;DHT22;1312;50.298;8.520;2024-03-25T08:03:25;8.80;54.60
2605;DHT22;1312;50.298;8.520;2024-03-25T08:05:51;9.50;54.50
2605;DHT22;1312;50.298;8.520;2024-03-25T08:08:18;9.10;51.70
2605;DHT22;1312;50.298;8.520;2024-03-25T08:10:45;8.70;48.40
2605;DHT22;1312;50.298;8.520;2024-03-25T08:13:11;8.60;48.50
2605;DHT22;1312;50.298;8.520;2024-03-25T08:15:37;9.30;54.90
2605;DHT22;1312;50.298;8.520;2024-03-25T08:18:04;10.80;61.90
2605;DHT22;1312;50.298;8.520;2024-03-25T08:20:30;11.30;58.60
2605;DHT22;1312;50.298;8.520;2024-03-25T08:22:57;10.70;51.60
2605;DHT22;1312;50.298;8.520;2024-03-25T08:25:24;11.30;53.20
2605;DHT22;1312;50.298;8.520;2024-03-25T08:27:51;12.10;57.20
2605;DHT22;1312;50.298;8.520;2024-03-25T08:30:18;12.60;57.80
2605;DHT22;1312;50.298;8.520;2024-03-25T08:32:44;12.00;57.80
2605;DHT22;1312;50.298;8.520;2024-03-25T08:35:10;13.50;68.20
2605;DHT22;1312;50.298;8.520;2024-03-25T08:37:36;15.00;75.30
2605;DHT22;1312;50.298;8.520;2024-03-25T08:40:02;15.30;71.30
2605;DHT22;1312;50.298;8.520;2024-03-25T08:42:30;15.90;73.00
2605;DHT22;1312;50.298;8.520;2024-03-25T08:44:56;14.60;57.80
2605;DHT22;1312;50.298;8.520;2024-03-25T08:47:22;14.10;54.40
2605;DHT22;1312;50.298;8.520;2024-03-25T08:49:48;15.30;64.40
2605;DHT22;1312;50.298;8.520;2024-03-25T08:52:14;15.50;68.40
2605;DHT22;1312;50.298;8.520;2024-03-25T08:54:40;15.30;65.90
2605;DHT22;1312;50.298;8.520;2024-03-25T08:57:06;15.10;63.10
2605;DHT22;1312;50.298;8.520;2024-03-25T08:59:34;15.30;64.10
2605;DHT22;1312;50.298;8.520;2024-03-25T09:02:00;16.80;81.30
2605;DHT22;1312;50.298;8.520;2024-03-25T09:04:26;18.20;91.20
2605;DHT22;1312;50.298;8.520;2024-03-25T09:06:52;15.80;64.40
2605;DHT22;1312;50.298;8.520;2024-03-25T09:09:18;15.40;62.30
2605;DHT22;1312;50.298;8.520;2024-03-25T09:12:03;15.10;58.70
2605;DHT22;1312;50.298;8.520;2024-03-25T09:14:29;13.80;51.00
2605;DHT22;1312;50.298;8.520;2024-03-25T09:16:56;13.50;44.70
2605;DHT22;1312;50.298;8.520;2024-03-25T09:19:23;14.30;52.00
2605;DHT22;1312;50.298;8.520;2024-03-25T09:21:49;15.10;56.60
2605;DHT22;1312;50.298;8.520;2024-03-25T09:24:15;15.60;61.60
2605;DHT22;1312;50.298;8.520;2024-03-25T09:26:41;13.60;48.20
2605;DHT22;1312;50.298;8.520;2024-03-25T09:29:07;13.70;48.80
2605;DHT22;1312;50.298;8.520;2024-03-25T09:31:33;15.70;64.80
2605;DHT22;1312;50.298;8.520;2024-03-25T09:34:00;16.50;70.40
2605;DHT22;1312;50.298;8.520;2024-03-25T09:36:26;16.20;66.00
2605;DHT22;1312;50.298;8.520;2024-03-25T09:38:52;15.40;60.00
2605;DHT22;1312;50.298;8.520;2024-03-25T09:41:21;16.00;66.40
2605;DHT22;1312;50.298;8.520;2024-03-25T09:43:48;16.70;71.80
2605;DHT22;1312;50.298;8.520;2024-03-25T09:46:18;16.90;74.00
2605;DHT22;1312;50.298;8.520;2024-03-25T09:48:44;16.20;66.80
2605;DHT22;1312;50.298;8.520;2024-03-25T09:51:11;17.10;77.90
2605;DHT22;1312;50.298;8.520;2024-03-25T09:53:38;16.50;73.90
2605;DHT22;1312;50.298;8.520;2024-03-25T09:56:04;16.10;64.00
2605;DHT22;1312;50.298;8.520;2024-03-25T09:58:31;15.50;58.40
2605;DHT22;1312;50.298;8.520;2024-03-25T10:00:58;16.20;64.10
2605;DHT22;1312;50.298;8.520;2024-03-25T10:03:25;15.90;61.20
2605;DHT22;1312;50.298;8.520;2024-03-25T10:05:51;15.30;56.80
2605;DHT22;1312;50.298;8.520;2024-03-25T10:08:21;15.40;57.60
2605;DHT22;1312;50.298;8.520;2024-03-25T10:10:47;12.60;35.30
2605;DHT22;1312;50.298;8.520;2024-03-25T10:13:13;12.40;33.80
2605;DHT22;1312;50.298;8.520;2024-03-25T10:15:41;13.00;37.40
2605;DHT22;1312;50.298;8.520;2024-03-25T10:18:07;14.20;45.80
2605;DHT22;1312;50.298;8.520;2024-03-25T10:20:33;14.80;51.80
2605;DHT22;1312;50.298;8.520;2024-03-25T10:22:59;15.50;55.30
2605;DHT22;1312;50.298;8.520;2024-03-25T10:25:28;15.30;54.50
2605;DHT22;1312;50.298;8.520;2024-03-25T10:27:55;14.70;50.90
2605;DHT22;1312;50.298;8.520;2024-03-25T10:30:21;15.50;57.40
2605;DHT22;1312;50.298;8.520;2024-03-25T10:32:58;15.50;56.00
2605;DHT22;1312;50.298;8.520;2024-03-25T10:35:27;15.40;55.50
2605;DHT22;1312;50.298;8.520;2024-03-25T10:37:55;17.40;75.20
2605;DHT22;1312;50.298;8.520;2024-03-25T10:40:23;16.70;71.40
2605;DHT22;1312;50.298;8.520;2024-03-25T10:42:56;17.20;72.60
2605;DHT22;1312;50.298;8.520;2024-03-25T10:45:27;17.40;78.10
2605;DHT22;1312;50.298;8.520;2024-03-25T10:47:57;20.00;96.10
2605;DHT22;1312;50.298;8.520;2024-03-25T10:50:28;19.50;93.20
2605;DHT22;1312;50.298;8.520;2024-03-25T10:52:54;17.90;81.40
2605;DHT22;1312;50.298;8.520;2024-03-25T10:55:21;18.60;87.60
2605;DHT22;1312;50.298;8.520;2024-03-25T10:57:48;19.70;95.30
2605;DHT22;1312;50.298;8.520;2024-03-25T11:00:16;20.90;99.90
2605;DHT22;1312;50.298;8.520;2024-03-25T11:02:43;20.20;97.20
2605;DHT22;1312;50.298;8.520;2024-03-25T11:05:09;18.10;84.50
2605;DHT22;1312;50.298;8.520;2024-03-25T11:07:36;19.60;93.80
2605;DHT22;1312;50.298;8.520;2024-03-25T11:10:04;19.70;93.60
2605;DHT22;1312;50.298;8.520;2024-03-25T11:12:35;19.10;91.00
2605;DHT22;1312;50.298;8.520;2024-03-25T11:15:01;18.80;89.00
2605;DHT22;1312;50.298;8.520;2024-03-25T11:17:30;18.00;75.90
2605;DHT22;1312;50.298;8.520;2024-03-25T11:20:07;16.70;61.70
2605;DHT22;1312;50.298;8.520;2024-03-25T11:22:33;17.90;75.70
2605;DHT22;1312;50.298;8.520;2024-03-25T11:25:05;19.00;84.30
2605;DHT22;1312;50.298;8.520;2024-03-25T11:27:33;19.30;87.00
2605;DHT22;1312;50.298;8.520;2024-03-25T11:30:00;19.70;90.10
2605;DHT22;1312;50.298;8.520;2024-03-25T11:32:26;19.80;91.00
2605;DHT22;1312;50.298;8.520;2024-03-25T11:34:54;19.10;84.00
2605;DHT22;1312;50.298;8.520;2024-03-25T11:37:20;18.90;81.20
2605;DHT22;1312;50.298;8.520;2024-03-25T11:39:46;20.00;91.60
2605;DHT22;1312;50.298;8.520;2024-03-25T11:42:13;20.10;92.80
2605;DHT22;1312;50.298;8.520;2024-03-25T11:44:39;21.20;98.90
2605;DHT22;1312;50.298;8.520;2024-03-25T11:47:07;21.10;98.20
2605;DHT22;1312;50.298;8.520;2024-03-25T11:49:33;20.50;95.40
2605;DHT22;1312;50.298;8.520;2024-03-25T11:52:01;20.50;95.60
2605;DHT22;1312;50.298;8.520;2024-03-25T11:54:27;20.90;97.00
2605;DHT22;1312;50.298;8.520;2024-03-25T11:56:54;19.80;90.50
2605;DHT22;1312;50.298;8.520;2024-03-25T11:59:21;19.10;81.90
2605;DHT22;1312;50.298;8.520;2024-03-25T12:01:47;19.20;84.40
2605;DHT22;1312;50.298;8.520;2024-03-25T12:04:17;19.80;89.30
2605;DHT22;1312;50.298;8.520;2024-03-25T12:06:43;19.00;79.60
2605;DHT22;1312;50.298;8.520;2024-03-25T12:09:11;20.30;91.80
2605;DHT22;1312;50.298;8.520;2024-03-25T12:11:57;21.10;96.90
2605;DHT22;1312;50.298;8.520;2024-03-25T12:14:23;19.10;83.30
2605;DHT22;1312;50.298;8.520;2024-03-25T12:16:50;17.80;65.80
2605;DHT22;1312;50.298;8.520;2024-03-25T12:19:16;17.80;63.20
2605;DHT22;1312;50.298;8.520;2024-03-25T12:21:42;16.70;54.00
2605;DHT22;1312;50.298;8.520;2024-03-25T12:24:08;19.10;79.20
2605;DHT22;1312;50.298;8.520;2024-03-25T12:26:35;18.60;75.50
2605;DHT22;1312;50.298;8.520;2024-03-25T12:29:02;17.80;63.80
2605;DHT22;1312;50.298;8.520;2024-03-25T12:31:28;17.40;59.30
2605;DHT22;1312;50.298;8.520;2024-03-25T12:33:54;18.10;66.30
2605;DHT22;1312;50.298;8.520;2024-03-25T12:36:20;17.60;59.70
2605;DHT22;1312;50.298;8.520;2024-03-25T12:38:54;17.70;60.20
2605;DHT22;1312;50.298;8.520;2024-03-25T12:41:22;18.60;72.00
2605;DHT22;1312;50.298;8.520;2024-03-25T12:43:51;17.40;59.20
2605;DHT22;1312;50.298;8.520;2024-03-25T12:46:17;17.90;63.70
2605;DHT22;1312;50.298;8.520;2024-03-25T12:48:44;19.40;79.30
2605;DHT22;1312;50.298;8.520;2024-03-25T12:51:13;18.10;65.60
2605;DHT22;1312;50.298;8.520;2024-03-25T12:53:39;19.50;81.30
2605;DHT22;1312;50.298;8.520;2024-03-25T12:56:06;18.40;70.60
2605;DHT22;1312;50.298;8.520;2024-03-25T12:58:32;17.60;58.20
2605;DHT22;1312;50.298;8.520;2024-03-25T13:01:00;17.70;59.80
2605;DHT22;1312;50.298;8.520;2024-03-25T13:03:26;18.70;70.30
2605;DHT22;1312;50.298;8.520;2024-03-25T13:05:52;18.30;65.20
2605;DHT22;1312;50.298;8.520;2024-03-25T13:08:19;16.50;51.20
2605;DHT22;1312;50.298;8.520;2024-03-25T13:10:45;15.90;44.80
2605;DHT22;1312;50.298;8.520;2024-03-25T13:13:11;17.30;54.90
2605;DHT22;1312;50.298;8.520;2024-03-25T13:15:37;15.80;45.10
2605;DHT22;1312;50.298;8.520;2024-03-25T13:18:05;16.00;43.90
2605;DHT22;1312;50.298;8.520;2024-03-25T13:20:31;17.10;52.60
2605;DHT22;1312;50.298;8.520;2024-03-25T13:22:57;17.20;53.40
2605;DHT22;1312;50.298;8.520;2024-03-25T13:25:24;16.90;51.10
2605;DHT22;1312;50.298;8.520;2024-03-25T13:27:50;15.10;37.00
2605;DHT22;1312;50.298;8.520;2024-03-25T13:30:16;14.20;29.50
2605;DHT22;1312;50.298;8.520;2024-03-25T13:32:42;15.60;39.20
2605;DHT22;1312;50.298;8.520;2024-03-25T13:35:10;15.90;43.70
2605;DHT22;1312;50.298;8.520;2024-03-25T13:37:36;14.70;35.20
2605;DHT22;1312;50.298;8.520;2024-03-25T13:40:02;14.40;31.80
2605;DHT22;1312;50.298;8.520;2024-03-25T13:42:29;14.20;30.30
2605;DHT22;1312;50.298;8.520;2024-03-25T13:44:56;13.10;26.60
2605;DHT22;1312;50.298;8.520;2024-03-25T13:47:22;12.60;24.20
2605;DHT22;1312;50.298;8.520;2024-03-25T13:49:48;11.80;19.90
2605;DHT22;1312;50.298;8.520;2024-03-25T13:52:16;11.70;19.00
2605;DHT22;1312;50.298;8.520;2024-03-25T13:54:42;11.60;19.70
2605;DHT22;1312;50.298;8.520;2024-03-25T13:57:08;11.00;16.10
2605;DHT22;1312;50.298;8.520;2024-03-25T13:59:34;10.60;13.50
2605;DHT22;1312;50.298;8.520;2024-03-25T14:02:00;10.90;15.20
2605;DHT22;1312;50.298;8.520;2024-03-25T14:04:26;11.20;16.50
2605;DHT22;1312;50.298;8.520;2024-03-25T14:06:52;10.80;14.40
2605;DHT22;1312;50.298;8.520;2024-03-25T14:09:29;10.80;15.00
2605;DHT22;1312;50.298;8.520;2024-03-25T14:11:55;10.50;12.30
2605;DHT22;1312;50.298;8.520;2024-03-25T14:14:21;10.30;12.00
2605;DHT22;1312;50.298;8.520;2024-03-25T14:16:47;10.40;11.60
2605;DHT22;1312;50.298;8.520;2024-03-25T14:19:13;10.30;11.50
2605;DHT22;1312;50.298;8.520;2024-03-25T14:21:39;10.40;12.10
2605;DHT22;1312;50.298;8.520;2024-03-25T14:24:06;10.40;13.10
2605;DHT22;1312;50.298;8.520;2024-03-25T14:26:33;10.70;13.20
2605;DHT22;1312;50.298;8.520;2024-03-25T14:29:00;10.10;10.60
2605;DHT22;1312;50.298;8.520;2024-03-25T14:31:26;9.80;9.00
2605;DHT22;1312;50.298;8.520;2024-03-25T14:33:52;9.80;9.20
2605;DHT22;1312;50.298;8.520;2024-03-25T14:36:18;10.70;13.90
2605;DHT22;1312;50.298;8.520;2024-03-25T14:38:44;10.30;11.90
2605;DHT22;1312;50.298;8.520;2024-03-25T14:41:12;10.20;11.40
2605;DHT22;1312;50.298;8.520;2024-03-25T14:43:40;10.30;12.10
2605;DHT22;1312;50.298;8.520;2024-03-25T14:46:06;10.80;14.20
2605;DHT22;1312;50.298;8.520;2024-03-25T14:48:32;10.80;14.70
2605;DHT22;1312;50.298;8.520;2024-03-25T14:50:58;10.50;11.70
2605;DHT22;1312;50.298;8.520;2024-03-25T14:53:24;10.60;12.90
2605;DHT22;1312;50.298;8.520;2024-03-25T14:55:50;10.70;14.50
2605;DHT22;1312;50.298;8.520;2024-03-25T14:58:16;10.40;12.00
2605;DHT22;1312;50.298;8.520;2024-03-25T15:00:44;10.40;11.40
2605;DHT22;1312;50.298;8.520;2024-03-25T15:03:10;10.50;11.90
2605;DHT22;1312;50.298;8.520;2024-03-25T15:05:36;10.40;12.30
2605;DHT22;1312;50.298;8.520;2024-03-25T15:08:02;10.10;9.60
2605;DHT22;1312;50.298;8.520;2024-03-25T15:10:28;10.20;10.10
2605;DHT22;1312;50.298;8.520;2024-03-25T15:12:55;10.10;9.80
2605;DHT22;1312;50.298;8.520;2024-03-25T15:15:21;10.00;8.60
2605;DHT22;1312;50.298;8.520;2024-03-25T15:17:52;9.90;9.00
2605;DHT22;1312;50.298;8.520;2024-03-25T15:20:20;10.00;8.90
2605;DHT22;1312;50.298;8.520;2024-03-25T15:22:46;10.00;7.60
2605;DHT22;1312;50.298;8.520;2024-03-25T15:25:12;10.30;9.70
2605;DHT22;1312;50.298;8.520;2024-03-25T15:27:38;10.40;10.30
2605;DHT22;1312;50.298;8.520;2024-03-25T15:30:06;10.30;10.10
2605;DHT22;1312;50.298;8.520;2024-03-25T15:32:32;10.10;8.40
2605;DHT22;1312;50.298;8.520;2024-03-25T15:34:59;9.80;6.60
2605;DHT22;1312;50.298;8.520;2024-03-25T15:37:25;10.00;8.60
2605;DHT22;1312;50.298;8.520;2024-03-25T15:39:51;9.70;5.80
2605;DHT22;1312;50.298;8.520;2024-03-25T15:42:18;10.10;8.50
2605;DHT22;1312;50.298;8.520;2024-03-25T15:44:44;9.70;6.20
2605;DHT22;1312;50.298;8.520;2024-03-25T15:47:10;9.70;6.40
2605;DHT22;1312;50.298;8.520;2024-03-25T15:49:36;9.50;4.80
2605;DHT22;1312;50.298;8.520;2024-03-25T15:52:03;9.30;2.80
2605;DHT22;1312;50.298;8.520;2024-03-25T15:54:30;9.50;3.50
2605;DHT22;1312;50.298;8.520;2024-03-25T15:56:56;9.50;5.10
2605;DHT22;1312;50.298;8.520;2024-03-25T15:59:22;9.30;3.30
2605;DHT22;1312;50.298;8.520;2024-03-25T16:01:48;9.30;3.50
2605;DHT22;1312;50.298;8.520;2024-03-25T16:04:14;9.10;2.20
2605;DHT22;1312;50.298;8.520;2024-03-25T16:06:40;9.50;5.30
2605;DHT22;1312;50.298;8.520;2024-03-25T16:09:08;9.10;3.00
2605;DHT22;1312;50.298;8.520;2024-03-25T16:11:34;9.00;1.10
2605;DHT22;1312;50.298;8.520;2024-03-25T16:14:00;8.80;1.00